createdAt,value
2023-03-11T00:01:23.253Z,1.04
2023-03-11T00:06:26.541Z,1.03
2023-03-11T00:11:29.702Z,1.02
2023-03-11T00:16:35.271Z,1.04
2023-03-11T00:21:38.359Z,1.02
2023-03-11T00:26:41.362Z,1.03
2023-03-11T00:31:44.376Z,1.03
2023-03-11T00:36:47.762Z,1.09
2023-03-11T00:41:51.940Z,1.20
2023-03-11T00:46:54.906Z,1.16
2023-03-11T00:51:57.784Z,1.15
2023-03-11T00:57:00.707Z,1.11
2023-03-11T01:02:03.698Z,1.07
2023-03-11T01:07:06.630Z,1.04
2023-03-11T01:12:09.554Z,1.02
2023-03-11T01:17:12.517Z,1.00
2023-03-11T01:22:16.155Z,0.95
2023-03-11T01:27:19.075Z,0.95
2023-03-11T01:32:22.326Z,0.96
2023-03-11T01:37:25.535Z,0.97
2023-03-11T01:42:28.449Z,0.95
2023-03-11T01:47:40.173Z,0.99
2023-03-11T01:52:44.833Z,0.98
2023-03-11T01:57:48.430Z,0.93
2023-03-11T02:02:58.926Z,0.90
2023-03-11T02:08:02.137Z,0.89
2023-03-11T02:13:05.172Z,0.88
2023-03-11T02:18:09.721Z,0.89
2023-03-11T02:23:18.978Z,0.93
2023-03-11T02:28:25.183Z,0.94
2023-03-11T02:33:33.379Z,0.88
2023-03-11T02:38:36.752Z,0.84
2023-03-11T02:43:45.945Z,0.83
2023-03-11T02:48:49.688Z,0.87
2023-03-11T02:53:59.866Z,0.86
2023-03-11T02:59:03.166Z,0.82
2023-03-11T03:04:06.248Z,0.76
2023-03-11T03:09:09.153Z,0.74
2023-03-11T03:14:12.193Z,0.68
2023-03-11T03:19:15.070Z,0.63
2023-03-11T03:24:17.998Z,0.62
2023-03-11T03:29:20.910Z,0.61
2023-03-11T03:34:24.065Z,0.66
2023-03-11T03:39:28.789Z,0.62
2023-03-11T03:44:33.928Z,0.61
2023-03-11T03:49:36.846Z,0.60
2023-03-11T03:54:39.779Z,0.57
2023-03-11T03:59:42.760Z,0.51
2023-03-11T04:04:47.630Z,0.48
2023-03-11T04:09:50.594Z,0.45
2023-03-11T04:14:56.524Z,0.41
2023-03-11T04:19:59.925Z,0.40
2023-03-11T04:25:06.895Z,0.41
2023-03-11T04:30:10.925Z,0.37
2023-03-11T04:35:13.919Z,0.39
2023-03-11T04:40:17.774Z,0.40
2023-03-11T04:45:23.859Z,0.40
2023-03-11T04:50:26.851Z,0.41
2023-03-11T04:55:33.610Z,0.44
2023-03-11T05:00:36.916Z,0.46
2023-03-11T05:05:40.122Z,0.49
2023-03-11T05:10:45.053Z,0.50
2023-03-11T05:15:48.896Z,0.52
2023-03-11T05:20:53.458Z,0.58
2023-03-11T05:25:56.558Z,0.50
2023-03-11T05:30:59.754Z,0.45
2023-03-11T05:36:08.915Z,0.44
2023-03-11T05:41:11.874Z,0.37
2023-03-11T05:46:15.167Z,0.28
2023-03-11T05:51:18.405Z,0.23
2023-03-11T05:56:23.396Z,0.18
2023-03-11T06:01:29.604Z,0.23
2023-03-11T06:06:33.323Z,0.22
2023-03-11T06:11:39.823Z,0.15
2023-03-11T06:16:43.153Z,0.06
2023-03-11T06:21:46.191Z,0.05
2023-03-11T06:26:52.932Z,-0.08
2023-03-11T06:31:56.728Z,-0.13
2023-03-11T06:37:00.390Z,-0.28
2023-03-11T06:42:04.042Z,-0.34
2023-03-11T06:47:09.692Z,-0.41
2023-03-11T06:52:12.797Z,-0.46
2023-03-11T06:57:16.929Z,-0.49
2023-03-11T07:02:19.916Z,-0.55
2023-03-11T07:07:22.900Z,-0.51
2023-03-11T07:12:26.482Z,-0.49
2023-03-11T07:17:32.827Z,-0.38
2023-03-11T07:22:36.194Z,-0.38
2023-03-11T07:27:41.614Z,-0.36
2023-03-11T07:32:47.183Z,-0.34
2023-03-11T07:37:50.283Z,-0.22
2023-03-11T07:42:53.335Z,-0.19
2023-03-11T07:47:56.388Z,-0.22
2023-03-11T07:52:59.343Z,-0.16
2023-03-11T07:58:02.484Z,-0.10
2023-03-11T08:03:08.809Z,0.06
2023-03-11T08:08:11.999Z,0.17
2023-03-11T08:13:15.067Z,0.28
2023-03-11T08:18:18.353Z,0.32
2023-03-11T08:23:21.292Z,0.23
2023-03-11T08:28:24.382Z,0.17
2023-03-11T08:33:27.944Z,0.22
2023-03-11T08:38:31.020Z,0.26
2023-03-11T08:43:34.368Z,0.37
2023-03-11T08:48:38.079Z,0.34
2023-03-11T08:53:41.661Z,0.37
2023-03-11T08:58:45.408Z,0.29
2023-03-11T09:03:48.763Z,0.24
2023-03-11T09:08:51.875Z,0.22
2023-03-11T09:13:55.397Z,0.20
2023-03-11T09:19:00.445Z,0.20
2023-03-11T09:24:05.135Z,0.16
2023-03-11T09:29:08.038Z,0.16
2023-03-11T09:34:16.047Z,0.15
2023-03-11T09:39:19.838Z,0.10
2023-03-11T09:44:45.274Z,0.09
2023-03-11T09:50:16.940Z,0.15
2023-03-11T09:55:45.658Z,0.14
2023-03-11T10:00:52.598Z,0.17
2023-03-11T10:06:31.148Z,0.17
2023-03-11T10:12:08.042Z,0.17
2023-03-11T10:17:58.900Z,0.21
2023-03-11T10:23:15.782Z,0.17
2023-03-11T10:28:37.688Z,0.20
2023-03-11T10:34:16.273Z,0.27
2023-03-11T10:39:42.254Z,0.33
2023-03-11T10:44:52.551Z,0.32
2023-03-11T10:49:57.977Z,0.28
2023-03-11T10:55:03.545Z,0.26
2023-03-11T11:00:30.558Z,0.31
2023-03-11T11:05:42.324Z,0.34
2023-03-11T11:10:56.904Z,0.44
2023-03-11T11:16:23.280Z,0.37
2023-03-11T11:21:37.507Z,0.40
2023-03-11T11:26:41.258Z,0.34
2023-03-11T11:31:49.060Z,0.33
2023-03-11T11:37:07.557Z,0.35
2023-03-11T11:42:14.873Z,0.35
2023-03-11T11:47:26.289Z,0.38
2023-03-11T11:52:40.076Z,0.52
2023-03-11T11:57:43.001Z,0.56
2023-03-11T12:03:30.713Z,0.45
2023-03-11T12:09:01.177Z,0.41
2023-03-11T12:14:28.008Z,0.37
2023-03-11T12:19:47.037Z,0.35
2023-03-11T12:25:10.285Z,0.39
2023-03-11T12:30:27.315Z,0.42
2023-03-11T12:35:35.808Z,0.39
2023-03-11T12:40:47.776Z,0.38
2023-03-11T12:45:53.495Z,0.41
2023-03-11T12:51:00.177Z,0.49
2023-03-11T12:56:42.629Z,0.59
2023-03-11T13:02:24.704Z,0.59
2023-03-11T13:07:43.665Z,0.50
2023-03-11T13:12:51.406Z,0.60
2023-03-11T13:18:05.411Z,0.87
2023-03-11T13:23:14.264Z,0.88
2023-03-11T13:28:45.318Z,0.93
2023-03-11T13:34:04.918Z,0.92
2023-03-11T13:39:39.892Z,0.92
2023-03-11T13:44:43.547Z,0.87
2023-03-11T13:50:20.698Z,0.82
2023-03-11T13:55:40.560Z,0.91
2023-03-11T14:00:56.896Z,1.17
2023-03-11T14:06:10.822Z,1.28
2023-03-11T14:11:18.120Z,1.39
2023-03-11T14:16:36.479Z,1.06
2023-03-11T14:21:51.411Z,0.84
2023-03-11T14:26:59.623Z,0.77
2023-03-11T14:32:25.965Z,0.68
2023-03-11T14:37:37.509Z,0.67
2023-03-11T14:42:44.074Z,0.73
2023-03-11T14:48:03.770Z,0.82
2023-03-11T14:53:16.652Z,0.78
2023-03-11T14:59:07.974Z,0.68
2023-03-11T15:04:33.224Z,0.70
2023-03-11T15:09:41.507Z,0.52
2023-03-11T15:14:51.800Z,0.43
2023-03-11T15:19:56.139Z,0.41
2023-03-11T15:25:03.084Z,0.43
2023-03-11T15:30:24.609Z,0.41
2023-03-11T15:35:30.896Z,0.38
2023-03-11T15:40:44.870Z,0.39
2023-03-11T15:45:49.290Z,0.44
2023-03-11T15:51:06.635Z,0.46
2023-03-11T15:56:20.158Z,0.47
2023-03-11T16:01:28.563Z,0.44
2023-03-11T16:06:31.578Z,0.43
2023-03-11T16:11:41.156Z,0.42
2023-03-11T16:16:47.728Z,0.42
2023-03-11T16:21:50.925Z,0.41
2023-03-11T16:26:54.602Z,0.36
2023-03-11T16:31:57.622Z,0.30
2023-03-11T16:37:00.947Z,0.21
2023-03-11T16:42:04.285Z,0.11
2023-03-11T16:47:07.386Z,0.05
2023-03-11T16:52:10.527Z,0.00
2023-03-11T16:57:13.666Z,0.01
2023-03-11T17:02:16.749Z,0.02
2023-03-11T17:07:19.939Z,0.02
2023-03-11T17:12:27.403Z,0.07
2023-03-11T17:17:30.383Z,0.13
2023-03-11T17:22:33.966Z,0.12
2023-03-11T17:27:38.413Z,0.13
2023-03-11T17:38:02.884Z,0.13
2023-03-11T17:43:05.999Z,0.10
2023-03-11T17:48:09.233Z,0.05
2023-03-11T17:53:12.131Z,-0.04
2023-03-11T17:58:15.204Z,-0.16
2023-03-11T18:03:18.104Z,-0.25
2023-03-11T18:08:21.126Z,-0.33
2023-03-11T18:13:24.648Z,-0.45
2023-03-11T18:18:30.321Z,-0.51
2023-03-11T18:23:34.617Z,-0.58
2023-03-11T18:28:38.075Z,-0.59
2023-03-11T18:33:46.593Z,-0.54
2023-03-11T18:38:50.708Z,-0.46
2023-03-11T18:43:58.347Z,-0.36
2023-03-11T18:49:03.932Z,-0.29
2023-03-11T18:54:07.232Z,-0.28
2023-03-11T18:59:12.206Z,-0.37
2023-03-11T19:04:15.787Z,-0.47
2023-03-11T19:09:19.052Z,-0.49
2023-03-11T19:14:22.354Z,-0.49
2023-03-11T19:19:25.579Z,-0.50
2023-03-11T19:24:28.924Z,-0.60
2023-03-11T19:29:32.254Z,-0.72
2023-03-11T19:34:35.380Z,-0.84
2023-03-11T19:39:38.501Z,-0.98
2023-03-11T19:44:44.182Z,-1.11
2023-03-11T19:49:53.114Z,-1.19
2023-03-11T19:54:56.314Z,-1.26
2023-03-11T19:59:59.844Z,-1.31
2023-03-11T20:05:03.780Z,-1.33
2023-03-11T20:10:07.563Z,-1.34
2023-03-11T20:15:11.429Z,-1.32
2023-03-11T20:20:14.995Z,-1.26
2023-03-11T20:25:18.215Z,-1.26
2023-03-11T20:30:22.011Z,-1.29
2023-03-11T20:35:25.118Z,-1.32
2023-03-11T20:40:28.252Z,-1.33
2023-03-11T20:45:31.608Z,-1.35
2023-03-11T20:50:35.207Z,-1.39
2023-03-11T20:55:41.029Z,-1.46
2023-03-11T21:00:44.314Z,-1.51
2023-03-11T21:05:47.605Z,-1.58
2023-03-11T21:10:51.165Z,-1.63
2023-03-11T21:15:55.265Z,-1.65
2023-03-11T21:20:58.612Z,-1.71
2023-03-11T21:26:04.260Z,-1.74
2023-03-11T21:31:16.995Z,-1.80
2023-03-11T21:36:20.205Z,-1.85
2023-03-11T21:41:26.786Z,-1.90
2023-03-11T21:46:32.376Z,-1.95
2023-03-11T21:51:35.701Z,-1.98
2023-03-11T21:56:39.881Z,-2.00
2023-03-11T22:01:43.425Z,-2.04
2023-03-11T22:06:46.598Z,-2.07
2023-03-11T22:11:51.956Z,-2.09
2023-03-11T22:16:55.123Z,-2.13
2023-03-11T22:21:58.570Z,-2.17
2023-03-11T22:27:01.800Z,-2.17
2023-03-11T22:32:05.634Z,-2.16
2023-03-11T22:37:11.691Z,-2.20
2023-03-11T22:42:14.726Z,-2.25
2023-03-11T22:47:17.824Z,-2.27
2023-03-11T22:52:21.194Z,-2.26
2023-03-11T22:57:27.048Z,-2.21
2023-03-11T23:02:30.275Z,-2.18
2023-03-11T23:07:44.571Z,-2.14
2023-03-11T23:12:47.977Z,-2.06
2023-03-11T23:17:51.022Z,-1.95
2023-03-11T23:22:54.068Z,-1.80
2023-03-11T23:27:58.032Z,-1.67
2023-03-11T23:33:09.047Z,-1.54
2023-03-11T23:38:15.333Z,-1.45
2023-03-11T23:43:18.403Z,-1.39
2023-03-11T23:48:27.328Z,-1.30
2023-03-11T23:53:32.394Z,-1.18
2023-03-11T23:58:35.592Z,-1.10
